Auburn, NE

11:27 PM CST on February 10, 2016 (GMT -0600)
The Butler's backyard | | Change Station
CLOSE
Current Station
Personal Weather Station
Location: Auburn, NE
Elevation: 1086 ft
Nearby Weather Stations

Elev 1086 ft 40.38 °N, 95.85 °W | Updated 7 minutes ago

Partly Cloudy
Partly Cloudy
26.2 °F
Feels Like 20 °F
N
5.3
Wind Variable Wind from NNE

Today
High -- | Low -- °F
--% Chance of Precip.
Yesterday
High -- | Low -- °F
Precip. -- in
Pressure 30.13 in
Visibility 10.0 miles
Clouds Mostly Cloudy 1000 ft
Mostly Cloudy 1400 ft
Mostly Cloudy 4200 ft
Windchill 20 °F
Dew Point 23 °F
Humidity 88%
Rainfall 0.00 in
Snow Depth Not available.
7:23 AM 5:52 PM
Waxing Crescent, 9% visible
METAR KAFK 110515Z AUTO 05011KT 10SM BKN010 BKN014 BKN042 M03/M05 A3013 RMK AO2 T10321047
Pressure 30.13 in
Visibility 10.0 miles
Clouds Mostly Cloudy 1000 ft
Mostly Cloudy 1400 ft
Mostly Cloudy 4200 ft
Windchill 20 °F
Dew Point 23 °F
Humidity 88%
Rainfall 0.00 in
Snow Depth Not available.
7:23 AM 5:52 PM
Waxing Crescent, 9% visible
METAR KAFK 110515Z AUTO 05011KT 10SM BKN010 BKN014 BKN042 M03/M05 A3013 RMK AO2 T10321047

10-Day Weather Forecast

Almanac

Astronomy

Feb. 10, 2016 Rise Set
Actual Time
Civil Twilight
Nautical Twilight
Astronomical Twilight
Moon
Length of Visible Light
Length of Day
Tomorrow will be .
, % of the Moon is Illuminated

Today's Extremes

State Highs State Lows

Community

WunderPhotos

Upload Photos

1,892,023 photos uploaded!

WunderBlog® & News

Nearby

Air Quality

  Air Quality AQ Index Pollutant
Not available.

Snow Depth

Station Depth Elevation

Earthquake Activity

City Distance Mag. Time & Date
Minimum magnitude displayed is 2.5.

Coastal Water Temperatures

Place Temperature

Stations

Nearby Weather Stations

Station Location Temp. Windchill Dew Point Humidity Wind Precip. Elev Updated Type
                   

Watches & Warnings

There are currently no watches in effect.